createdAt,value
2022-08-18T00:03:55.597Z,3.10
2022-08-18T00:09:04.934Z,2.80
2022-08-18T00:14:08.242Z,2.80
2022-08-18T00:19:09.883Z,2.55
2022-08-18T00:24:11.639Z,3.65
2022-08-18T00:29:13.206Z,4.63
2022-08-18T00:34:14.866Z,3.25
2022-08-18T00:39:16.866Z,3.97
2022-08-18T00:44:18.418Z,5.25
2022-08-18T00:49:19.986Z,3.53
2022-08-18T00:54:29.186Z,3.17
2022-08-18T00:59:33.555Z,4.85
2022-08-18T01:04:44.397Z,4.47
2022-08-18T01:09:51.932Z,4.60
2022-08-18T01:14:54.922Z,3.38
2022-08-18T01:20:16.915Z,4.40
2022-08-18T01:25:40.147Z,3.20
2022-08-18T01:30:50.930Z,4.22
2022-08-18T01:35:54.274Z,3.22
2022-08-18T01:41:23.170Z,3.42
2022-08-18T01:46:20.265Z,3.65
2022-08-18T01:51:40.126Z,3.78
2022-08-18T01:56:43.436Z,3.22
2022-08-18T02:01:48.915Z,3.22
2022-08-18T02:06:56.242Z,3.65
2022-08-18T02:12:00.141Z,3.58
2022-08-18T02:17:04.667Z,3.13
2022-08-18T02:22:08.067Z,2.78
2022-08-18T02:27:11.893Z,3.33
2022-08-18T02:32:13.973Z,3.47
2022-08-18T02:37:15.897Z,3.40
2022-08-18T02:42:18.153Z,3.35
2022-08-18T02:47:20.873Z,3.10
2022-08-18T02:52:23.087Z,3.13
2022-08-18T02:57:24.723Z,3.38
2022-08-18T03:02:26.470Z,3.33
2022-08-18T03:07:28.106Z,4.53
2022-08-18T03:12:29.659Z,3.25
2022-08-18T03:17:31.919Z,3.42
2022-08-18T03:22:34.246Z,3.50
2022-08-18T03:27:36.063Z,3.35
2022-08-18T03:32:37.705Z,4.10
2022-08-18T03:37:39.294Z,3.60
2022-08-18T03:42:40.916Z,3.80
2022-08-18T03:47:42.487Z,3.83
2022-08-18T03:52:48.654Z,3.42
2022-08-18T03:57:52.994Z,3.80
2022-08-18T04:02:55.047Z,3.28
2022-08-18T04:07:57.656Z,4.05
2022-08-18T04:12:59.330Z,4.00
2022-08-18T04:18:04.704Z,4.90
2022-08-18T04:23:06.607Z,4.38
2022-08-18T04:28:08.231Z,3.42
2022-08-18T04:33:09.839Z,3.85
2022-08-18T04:38:11.575Z,3.45
2022-08-18T04:43:15.543Z,3.60
2022-08-18T04:48:17.681Z,3.65
2022-08-18T04:53:38.190Z,3.95
2022-08-18T04:58:39.905Z,3.45
2022-08-18T05:03:49.940Z,4.75
2022-08-18T05:08:54.584Z,3.50
2022-08-18T05:14:00.229Z,4.07
2022-08-18T05:19:14.934Z,4.07
2022-08-18T05:24:17.467Z,3.95
2022-08-18T05:29:23.539Z,4.00
2022-08-18T05:34:25.716Z,4.00
2022-08-18T05:39:40.355Z,3.78
2022-08-18T05:44:46.008Z,3.75
2022-08-18T05:49:49.373Z,3.83
2022-08-18T05:55:19.742Z,4.00
2022-08-18T06:00:23.959Z,3.35
2022-08-18T06:05:32.664Z,3.65
2022-08-18T06:10:35.882Z,4.72
2022-08-18T06:15:39.600Z,3.97
2022-08-18T06:20:50.479Z,4.05
2022-08-18T06:26:11.057Z,3.88
2022-08-18T06:31:30.425Z,3.78
2022-08-18T06:36:45.070Z,3.42
2022-08-18T06:41:49.480Z,4.28
2022-08-18T06:46:56.391Z,3.40
2022-08-18T06:51:58.091Z,4.78
2022-08-18T06:56:59.934Z,3.42
2022-08-18T07:02:18.521Z,4.32
2022-08-18T07:07:43.435Z,2.97
2022-08-18T07:12:45.194Z,4.00
2022-08-18T07:17:49.452Z,3.65
2022-08-18T07:23:01.512Z,4.20
2022-08-18T07:28:04.843Z,6.80
2022-08-18T07:33:19.246Z,4.13
2022-08-18T07:38:43.867Z,3.70
2022-08-18T07:43:52.262Z,4.30
2022-08-18T07:48:54.077Z,3.97
2022-08-18T07:54:31.230Z,4.22
2022-08-18T07:59:45.195Z,3.92
2022-08-18T08:04:49.867Z,4.05
2022-08-18T08:10:22.570Z,3.90
2022-08-18T08:15:49.642Z,3.72
2022-08-18T08:20:59.498Z,4.00
2022-08-18T08:26:24.549Z,3.50
2022-08-18T08:31:47.727Z,3.85
2022-08-18T08:36:59.161Z,4.78
2022-08-18T08:42:31.874Z,6.13
2022-08-18T08:47:36.905Z,3.72
2022-08-18T08:52:43.735Z,3.75
2022-08-18T08:57:56.033Z,4.78
2022-08-18T09:03:00.728Z,4.03
2022-08-18T09:08:34.110Z,4.30
2022-08-18T09:13:50.955Z,3.78
2022-08-18T09:19:19.291Z,4.25
2022-08-18T09:24:29.108Z,3.47
2022-08-18T09:29:54.274Z,3.42
2022-08-18T09:35:25.407Z,4.10
2022-08-18T09:46:12.374Z,3.03
2022-08-18T09:51:31.499Z,5.07
2022-08-18T10:02:33.034Z,5.97
2022-08-18T10:07:43.239Z,3.42
2022-08-18T10:13:03.739Z,2.97
2022-08-18T10:18:26.859Z,3.05
2022-08-18T10:29:52.921Z,3.85
2022-08-18T10:34:55.560Z,3.63
2022-08-18T10:40:03.230Z,4.88
2022-08-18T10:45:25.903Z,3.28
2022-08-18T10:50:50.081Z,3.50
2022-08-18T10:56:09.362Z,3.40
2022-08-18T11:01:36.955Z,3.10
2022-08-18T11:06:49.051Z,3.25
2022-08-18T11:12:00.026Z,3.70
2022-08-18T11:17:09.118Z,3.50
2022-08-18T11:22:36.509Z,3.28
2022-08-18T11:27:46.651Z,3.92
2022-08-18T11:32:52.198Z,3.83
2022-08-18T11:37:59.868Z,4.13
2022-08-18T11:43:29.736Z,3.77
2022-08-18T11:48:51.585Z,3.85
2022-08-18T11:54:00.618Z,3.35
2022-08-18T12:04:44.847Z,3.17
2022-08-18T12:10:17.693Z,3.30
2022-08-18T12:15:24.643Z,3.47
2022-08-18T12:20:27.560Z,2.95
2022-08-18T12:25:29.297Z,3.42
2022-08-18T12:30:31.093Z,3.28
2022-08-18T12:35:34.880Z,3.80
2022-08-18T12:40:36.970Z,2.85
2022-08-18T12:45:39.276Z,2.83
2022-08-18T12:50:54.641Z,2.60
2022-08-18T12:56:01.163Z,2.70
2022-08-18T13:01:03.780Z,3.33
2022-08-18T13:06:06.039Z,3.17
2022-08-18T13:11:15.225Z,2.90
2022-08-18T13:21:49.617Z,3.83
2022-08-18T13:26:51.669Z,2.92
2022-08-18T13:31:58.234Z,3.42
2022-08-18T13:36:59.883Z,2.80
2022-08-18T13:42:21.562Z,3.20
2022-08-18T13:47:27.649Z,2.85
2022-08-18T13:52:41.217Z,2.88
2022-08-18T13:57:50.293Z,2.78
2022-08-18T14:02:57.279Z,2.95
2022-08-18T14:07:59.055Z,2.78
2022-08-18T14:13:20.158Z,2.85
2022-08-18T14:18:29.057Z,2.65
2022-08-18T14:23:52.950Z,3.05
2022-08-18T14:28:55.554Z,2.80
2022-08-18T14:33:59.718Z,2.72
2022-08-18T14:39:06.106Z,2.50
2022-08-18T14:44:15.328Z,3.75
2022-08-18T14:49:22.148Z,2.60
2022-08-18T14:54:32.029Z,2.75
2022-08-18T14:59:34.688Z,2.97
2022-08-18T15:04:55.927Z,2.50
2022-08-18T15:10:15.339Z,4.28
2022-08-18T15:15:22.505Z,2.63
2022-08-18T15:20:29.770Z,2.28
2022-08-18T15:25:47.137Z,2.50
2022-08-18T15:36:16.676Z,2.80
2022-08-18T15:41:43.902Z,2.85
2022-08-18T15:46:51.302Z,2.67
2022-08-18T15:51:55.173Z,5.00
2022-08-18T15:56:58.851Z,3.15
2022-08-18T16:02:01.037Z,2.92
2022-08-18T16:07:02.729Z,2.97
2022-08-18T16:12:04.677Z,2.60
2022-08-18T16:17:09.440Z,3.00
2022-08-18T16:22:19.803Z,2.70
2022-08-18T16:27:24.228Z,3.10
2022-08-18T16:32:26.369Z,3.10
2022-08-18T16:37:28.150Z,2.60
2022-08-18T16:42:32.815Z,4.03
2022-08-18T16:47:39.065Z,3.13
2022-08-18T16:52:41.894Z,2.60
2022-08-18T16:58:03.220Z,2.58
2022-08-18T17:03:24.942Z,2.47
2022-08-18T17:08:26.605Z,2.60
2022-08-18T17:13:28.703Z,2.83
2022-08-18T17:18:30.562Z,2.90
2022-08-18T17:23:34.109Z,3.08
2022-08-18T17:28:50.195Z,2.90
2022-08-18T17:33:57.470Z,2.70
2022-08-18T17:39:02.855Z,3.60
2022-08-18T17:44:06.840Z,2.80
2022-08-18T17:49:54.401Z,2.90
2022-08-18T17:55:20.107Z,3.35
2022-08-18T18:00:22.283Z,2.67
2022-08-18T18:05:32.207Z,3.58
2022-08-18T18:16:29.275Z,5.93
2022-08-18T18:22:00.077Z,5.60
2022-08-18T18:26:55.892Z,7.38
2022-08-18T18:32:02.497Z,3.90
2022-08-18T18:37:04.285Z,3.95
2022-08-18T18:42:15.821Z,4.22
2022-08-18T18:47:40.434Z,4.65
2022-08-18T18:53:08.412Z,4.13
2022-08-18T18:58:55.507Z,9.13
2022-08-18T19:04:10.268Z,4.10
2022-08-18T19:09:37.590Z,4.28
2022-08-18T19:15:05.012Z,4.65
2022-08-18T19:20:15.932Z,4.80
2022-08-18T19:25:36.312Z,5.57
2022-08-18T19:30:42.782Z,5.32
2022-08-18T19:36:04.598Z,5.90
2022-08-18T19:41:20.267Z,5.38
2022-08-18T19:46:38.289Z,6.10
2022-08-18T19:51:42.749Z,5.43
2022-08-18T19:56:56.552Z,6.25
2022-08-18T20:02:35.113Z,6.25
2022-08-18T20:13:23.358Z,5.82
2022-08-18T20:18:35.860Z,6.53
2022-08-18T20:23:59.642Z,5.50
2022-08-18T20:29:02.348Z,5.60
2022-08-18T20:34:14.010Z,5.05
2022-08-18T20:39:35.342Z,5.78
2022-08-18T20:44:50.038Z,5.18
2022-08-18T20:50:07.301Z,9.15
2022-08-18T20:55:46.311Z,5.18
2022-08-18T21:00:55.658Z,5.80
2022-08-18T21:06:03.224Z,5.13
2022-08-18T21:11:20.579Z,5.30
2022-08-18T21:16:45.169Z,5.20
2022-08-18T21:21:53.937Z,5.40
2022-08-18T21:26:58.945Z,5.65
2022-08-18T21:32:17.056Z,5.75
2022-08-18T21:37:19.801Z,5.70
2022-08-18T21:42:32.646Z,5.90
2022-08-18T21:47:34.773Z,5.13
2022-08-18T21:52:40.390Z,5.93
2022-08-18T21:58:17.593Z,5.72
2022-08-18T22:03:23.295Z,6.67
2022-08-18T22:08:27.633Z,6.50
2022-08-18T22:13:48.135Z,6.07
2022-08-18T22:18:50.486Z,6.95
2022-08-18T22:24:11.379Z,6.38
2022-08-18T22:29:26.923Z,7.93
2022-08-18T22:34:32.969Z,7.70
2022-08-18T22:39:39.370Z,7.05
2022-08-18T22:44:42.231Z,8.73
2022-08-18T22:49:45.312Z,10.65
2022-08-18T22:54:47.155Z,10.60
2022-08-18T22:59:52.692Z,10.82
2022-08-18T23:04:54.461Z,10.68
2022-08-18T23:09:56.385Z,11.05
2022-08-18T23:14:58.965Z,10.43
2022-08-18T23:20:00.733Z,11.02
2022-08-18T23:25:09.185Z,10.35
2022-08-18T23:30:12.738Z,11.45
2022-08-18T23:35:15.603Z,11.55
2022-08-18T23:40:19.475Z,11.40
2022-08-18T23:45:21.275Z,10.88
2022-08-18T23:50:23.878Z,11.38
2022-08-18T23:55:28.921Z,10.05
